Time;durP1;ratioP1;P1;durP2;ratioP2;P2;SDS_P1;SDS_P2;PMS_P1;PMS_P2;Temp;Humidity;BMP_temperature;BMP_pressure;BME280_temperature;BME280_humidity;BME280_pressure;Samples;Min_cycle;Max_cycle;Signal;HPM_P1;HPM_P2
2023/04/14 00:00:11;;;;;;;2.72;1.00;;;;;;;7.65;78.21;100814.34;5007207;28;20034;-75
2023/04/14 00:02:36;;;;;;;1.30;0.93;;;;;;;7.64;78.32;100812.59;5006397;28;20061;-75
2023/04/14 00:05:03;;;;;;;2.38;1.00;;;;;;;7.62;78.27;100817.00;5004526;28;20046;-74
2023/04/14 00:07:28;;;;;;;2.35;1.45;;;;;;;7.61;78.44;100812.72;5006504;28;20038;-74
2023/04/14 00:09:54;;;;;;;1.77;1.00;;;;;;;7.59;78.29;100817.97;5005182;28;20053;-75
2023/04/14 00:12:19;;;;;;;1.92;1.08;;;;;;;7.58;78.38;100821.47;5006305;28;20033;-75
2023/04/14 00:14:44;;;;;;;0.95;0.70;;;;;;;7.56;78.38;100820.66;5005278;28;20035;-74
2023/04/14 00:17:10;;;;;;;2.35;0.65;;;;;;;7.55;78.39;100818.97;5006829;28;20046;-75
2023/04/14 00:19:35;;;;;;;3.42;1.08;;;;;;;7.53;78.43;100817.28;5006456;28;20050;-75
2023/04/14 00:22:01;;;;;;;1.70;0.93;;;;;;;7.50;78.29;100816.47;5005526;28;20034;-75
2023/04/14 00:24:27;;;;;;;0.85;0.80;;;;;;;7.48;78.39;100814.81;4992673;28;20101;-75
2023/04/14 00:26:52;;;;;;;1.98;1.08;;;;;;;7.47;78.57;100826.13;5006514;28;20416;-73
2023/04/14 00:29:18;;;;;;;1.50;0.90;;;;;;;7.44;78.43;100821.88;5006951;28;20061;-72
2023/04/14 00:31:43;;;;;;;0.68;0.60;;;;;;;7.42;78.45;100826.28;4997293;28;20047;-73
2023/04/14 00:34:09;;;;;;;1.60;0.90;;;;;;;7.39;78.47;100818.53;5006826;28;20061;-73
2023/04/14 00:36:35;;;;;;;2.60;1.08;;;;;;;7.37;78.53;100827.25;5005033;28;20058;-73
2023/04/14 00:39:01;;;;;;;1.80;1.00;;;;;;;7.35;78.47;100823.84;5006112;28;20062;-74
2023/04/14 00:41:32;;;;;;;1.52;0.85;;;;;;;7.33;78.54;100823.91;5006432;28;20057;-74
2023/04/14 00:43:58;;;;;;;2.65;1.10;;;;;;;7.31;78.69;100833.50;5006343;28;20088;-74
2023/04/14 00:46:23;;;;;;;1.05;0.60;;;;;;;7.29;78.62;100832.69;5006130;28;20094;-73
2023/04/14 00:48:49;;;;;;;1.58;0.88;;;;;;;7.27;78.69;100842.31;4988474;28;20039;-73
2023/04/14 00:51:14;;;;;;;1.50;1.00;;;;;;;7.26;78.75;100843.22;5006244;28;20034;-73
2023/04/14 00:53:40;;;;;;;1.92;0.73;;;;;;;7.24;78.62;100837.16;5005558;28;20056;-73
2023/04/14 00:56:07;;;;;;;1.77;0.82;;;;;;;7.22;78.91;100845.06;5004920;28;20037;-73
2023/04/14 00:58:32;;;;;;;1.00;0.65;;;;;;;7.19;78.87;100841.66;5004563;28;20038;-73
2023/04/14 01:00:58;;;;;;;1.75;1.00;;;;;;;7.19;78.90;100841.66;5004965;28;20035;-73
2023/04/14 01:03:25;;;;;;;2.65;0.88;;;;;;;7.18;79.02;100842.56;5005623;28;20072;-74
2023/04/14 01:05:50;;;;;;;0.88;0.70;;;;;;;7.16;79.21;100845.19;5004803;28;20121;-74
2023/04/14 01:08:17;;;;;;;2.42;1.00;;;;;;;7.14;79.19;100844.38;5006260;28;20070;-74
2023/04/14 01:11:01;;;;;;;1.15;0.80;;;;;;;7.14;79.17;100848.75;5005162;28;20334;-74
2023/04/14 01:13:50;;;;;;;1.67;1.02;;;;;;;7.13;79.19;100852.22;5004951;28;20038;-74
2023/04/14 01:16:29;;;;;;;1.33;1.10;;;;;;;7.12;79.27;100859.19;5008899;28;20069;-74
2023/04/14 01:19:23;;;;;;;1.25;0.77;;;;;;;7.10;79.35;100848.81;5009414;28;20049;-74
2023/04/14 01:21:53;;;;;;;1.63;1.02;;;;;;;7.10;79.36;100851.41;4990074;28;20108;-74
2023/04/14 01:24:37;;;;;;;1.05;0.80;;;;;;;7.08;79.44;100848.00;5010409;28;20129;-74
2023/04/14 01:27:30;;;;;;;3.38;1.40;;;;;;;7.08;79.37;100845.41;4997459;28;20238;-74
2023/04/14 01:30:01;;;;;;;1.10;0.73;;;;;;;7.07;79.61;100838.47;4990174;28;20076;-74
2023/04/14 01:32:30;;;;;;;3.92;1.10;;;;;;;7.07;79.51;100835.88;5003857;28;20026;-75
2023/04/14 01:34:59;;;;;;;1.70;0.90;;;;;;;7.06;79.51;100842.00;5001451;28;20248;-75
2023/04/14 01:37:29;;;;;;;;;;;;;;;7.06;79.68;100838.53;5009812;28;20042;-74
2023/04/14 01:40:01;;;;;;;1.05;0.77;;;;;;;7.05;79.90;100842.88;5007373;28;19921;-75
2023/04/14 01:42:30;;;;;;;3.67;1.10;;;;;;;7.04;80.04;100841.19;4999829;28;20057;-75
2023/04/14 01:45:01;;;;;;;1.25;0.90;;;;;;;7.05;79.98;100848.06;5009497;28;20033;-75
2023/04/14 01:47:28;;;;;;;1.88;0.93;;;;;;;7.04;80.07;100850.72;5009274;28;20272;-75
2023/04/14 01:49:55;;;;;;;1.63;1.08;;;;;;;7.04;80.16;100845.50;5009524;28;20050;-74
2023/04/14 01:52:21;;;;;;;1.45;0.93;;;;;;;7.03;80.19;100846.41;5007933;28;20038;-74
2023/04/14 01:54:51;;;;;;;4.65;1.20;;;;;;;7.01;80.41;100846.44;5009091;28;20090;-74
2023/04/14 01:57:21;;;;;;;1.98;1.30;;;;;;;6.99;80.58;100843.03;5009088;28;20038;-74
2023/04/14 01:59:50;;;;;;;2.15;1.00;;;;;;;7.00;80.60;100846.50;5008599;28;20352;-74
2023/04/14 02:02:16;;;;;;;;;;;;;;;6.99;80.53;100840.44;5009188;28;20040;-74
2023/04/14 02:04:42;;;;;;;1.90;1.00;;;;;;;7.00;80.57;100849.09;4995783;28;19949;-74
2023/04/14 02:07:10;;;;;;;3.95;1.25;;;;;;;6.98;80.53;100851.72;5001877;28;20260;-77
2023/04/14 02:09:37;;;;;;;2.17;0.98;;;;;;;6.97;80.58;100843.94;5000958;28;20038;-77
2023/04/14 02:12:05;;;;;;;1.80;0.80;;;;;;;6.96;80.61;100845.72;5000431;28;20038;-77
2023/04/14 02:14:32;;;;;;;3.72;1.23;;;;;;;6.96;80.83;100843.09;5001226;28;20038;-77
2023/04/14 02:17:01;;;;;;;1.75;0.90;;;;;;;6.95;80.84;100849.22;5000179;28;20050;-77
2023/04/14 02:19:28;;;;;;;1.25;0.88;;;;;;;6.94;80.93;100852.72;5000719;28;20121;-77
2023/04/14 02:21:55;;;;;;;1.05;0.75;;;;;;;6.94;80.85;100849.25;5000231;28;20322;-77
2023/04/14 02:24:22;;;;;;;2.22;0.85;;;;;;;6.94;80.86;100854.47;5001644;28;20138;-77
2023/04/14 02:26:54;;;;;;;1.35;0.82;;;;;;;6.95;80.80;100856.16;4999494;28;20092;-77
2023/04/14 02:29:22;;;;;;;1.33;1.08;;;;;;;6.95;81.03;100854.44;5001252;28;20038;-77
2023/04/14 02:32:05;;;;;;;2.22;0.80;;;;;;;6.93;80.90;100845.81;5000511;28;20029;-75
2023/04/14 02:34:37;;;;;;;0.88;0.88;;;;;;;6.94;81.05;100854.47;5002185;28;20226;-75
2023/04/14 02:37:08;;;;;;;3.47;0.80;;;;;;;6.93;81.05;100856.22;5000161;28;20404;-75
2023/04/14 02:39:41;;;;;;;1.50;0.85;;;;;;;6.92;81.01;100855.34;5000506;28;20097;-75
2023/04/14 02:42:14;;;;;;;2.17;1.20;;;;;;;6.92;80.98;100855.34;5001328;28;20061;-75
2023/04/14 02:44:50;;;;;;;1.00;0.90;;;;;;;6.91;81.03;100860.59;5001146;28;20038;-75
2023/04/14 02:47:22;;;;;;;1.80;1.00;;;;;;;6.91;81.01;100857.97;4998875;28;20271;-75
2023/04/14 02:49:50;;;;;;;4.50;1.20;;;;;;;6.90;81.03;100861.50;5000834;28;20042;-75
2023/04/14 02:52:18;;;;;;;2.10;1.00;;;;;;;6.89;81.09;100858.06;5001782;28;20049;-75
2023/04/14 02:54:46;;;;;;;1.95;1.10;;;;;;;6.88;81.26;100853.72;5001508;28;20038;-75
2023/04/14 02:57:13;;;;;;;2.03;0.90;;;;;;;6.88;81.08;100855.47;5001350;28;20045;-75
2023/04/14 02:59:41;;;;;;;2.15;0.85;;;;;;;6.86;81.08;100845.09;5001422;28;20037;-75
2023/04/14 03:02:09;;;;;;;0.98;0.93;;;;;;;6.85;80.93;100851.19;5005544;28;20121;-75
2023/04/14 03:04:37;;;;;;;2.20;1.05;;;;;;;6.83;81.13;100847.78;5000881;28;20050;-75
2023/04/14 03:07:04;;;;;;;2.47;1.10;;;;;;;6.82;81.00;100853.00;4994620;28;20408;-75
2023/04/14 03:09:31;;;;;;;1.63;0.98;;;;;;;6.80;81.07;100849.59;5001099;28;20053;-75
2023/04/14 03:11:57;;;;;;;0.98;0.80;;;;;;;6.78;80.99;100854.00;5001211;28;20044;-75
2023/04/14 03:14:24;;;;;;;1.83;1.00;;;;;;;6.78;81.09;100851.38;5001425;28;20054;-75
2023/04/14 03:16:53;;;;;;;1.85;1.17;;;;;;;6.76;81.17;100859.22;5001132;28;20288;-75
2023/04/14 03:19:21;;;;;;;3.17;0.90;;;;;;;6.74;81.01;100861.00;5001046;28;20069;-75
2023/04/14 03:21:48;;;;;;;2.22;0.88;;;;;;;6.73;81.25;100859.28;5000943;28;20207;-75
2023/04/14 03:24:18;;;;;;;2.97;1.27;;;;;;;6.71;81.40;100859.34;5000399;28;20044;-75
2023/04/14 03:26:46;;;;;;;2.33;1.10;;;;;;;6.70;81.06;100859.38;5000546;28;20042;-75
2023/04/14 03:29:14;;;;;;;2.80;1.38;;;;;;;6.70;81.24;100862.00;5000586;28;20034;-75
2023/04/14 03:31:43;;;;;;;2.08;1.45;;;;;;;6.68;81.34;100858.56;4994113;28;20058;-75
2023/04/14 03:34:09;;;;;;;;;;;;;;;6.67;81.31;100862.91;4999673;28;20046;-75
2023/04/14 03:36:35;;;;;;;2.40;1.27;;;;;;;6.67;81.29;100864.66;4999560;28;19988;-75
2023/04/14 03:39:03;;;;;;;1.88;1.40;;;;;;;6.66;81.38;100869.03;4991903;28;20106;-75
2023/04/14 03:41:33;;;;;;;1.70;1.60;;;;;;;6.65;81.30;100863.84;5000210;28;20116;-75
2023/04/14 03:44:00;;;;;;;1.83;1.40;;;;;;;6.64;81.43;100870.81;5000020;28;20045;-75
2023/04/14 03:46:27;;;;;;;2.60;1.50;;;;;;;6.63;81.35;100871.69;5000116;28;20042;-75
2023/04/14 03:48:54;;;;;;;1.48;1.38;;;;;;;6.62;81.34;100871.72;4995060;28;20046;-75
2023/04/14 03:51:25;;;;;;;2.95;1.80;;;;;;;6.61;81.41;100872.63;5000383;28;20072;-75
2023/04/14 03:53:53;;;;;;;2.42;1.48;;;;;;;6.60;81.39;100869.16;4999572;28;20384;-75
2023/04/14 03:56:18;;;;;;;3.60;1.80;;;;;;;6.58;81.57;100867.47;4999898;28;20062;-75
2023/04/14 03:58:50;;;;;;;3.42;2.05;;;;;;;6.59;81.66;100867.44;4999326;28;20046;-75
2023/04/14 04:01:18;;;;;;;2.75;1.75;;;;;;;6.59;81.92;100869.22;4993213;28;20038;-75
2023/04/14 04:03:45;;;;;;;3.40;1.60;;;;;;;6.58;81.77;100870.94;4988340;28;20341;-75
2023/04/14 04:06:10;;;;;;;4.32;1.83;;;;;;;6.59;81.87;100866.59;4998644;28;20042;-75
2023/04/14 04:08:38;;;;;;;1.80;1.20;;;;;;;6.59;82.11;100867.44;5000370;28;20225;-75
2023/04/14 04:11:06;;;;;;;4.20;2.17;;;;;;;6.59;81.83;100875.25;5000169;28;20045;-75
2023/04/14 04:13:34;;;;;;;3.17;1.70;;;;;;;6.58;81.94;100870.94;5000444;28;20038;-75
2023/04/14 04:16:00;;;;;;;2.10;1.60;;;;;;;6.58;82.05;100872.69;5000606;28;20056;-75
2023/04/14 04:18:27;;;;;;;5.25;1.83;;;;;;;6.57;82.06;100874.44;5000995;28;20097;-75
2023/04/14 04:20:56;;;;;;;3.05;1.98;;;;;;;6.54;81.95;100877.09;4997779;28;20053;-75
2023/04/14 04:23:24;;;;;;;3.95;1.98;;;;;;;6.54;81.86;100874.50;4999624;28;20042;-75
2023/04/14 04:25:52;;;;;;;3.75;2.13;;;;;;;6.51;82.00;100885.84;4999662;28;20648;-75
2023/04/14 04:28:18;;;;;;;4.68;2.33;;;;;;;6.50;81.93;100880.69;5000019;28;20022;-75
2023/04/14 04:30:45;;;;;;;4.50;2.20;;;;;;;6.48;81.95;100880.72;4998018;28;20471;-75
2023/04/14 04:33:12;;;;;;;3.60;2.30;;;;;;;6.46;82.05;100881.66;4998860;28;20054;-75
2023/04/14 04:35:38;;;;;;;4.25;2.40;;;;;;;6.44;81.85;100881.69;5000005;28;20038;-75
2023/04/14 04:38:04;;;;;;;6.20;2.72;;;;;;;6.42;82.10;100883.47;4999962;28;20276;-75
2023/04/14 04:40:38;;;;;;;3.50;2.30;;;;;;;6.40;82.18;100885.22;4999541;28;20042;-75
2023/04/14 04:43:04;;;;;;;4.30;2.20;;;;;;;6.39;82.30;100887.88;4980552;28;20048;-75
2023/04/14 04:45:56;;;;;;;4.50;2.17;;;;;;;6.38;82.22;100891.34;4996389;28;20325;-75
2023/04/14 04:48:21;;;;;;;12.57;3.50;;;;;;;6.36;82.21;100887.94;4999640;28;20038;-75
2023/04/14 04:50:47;;;;;;;5.22;2.72;;;;;;;6.33;82.16;100891.44;4998308;28;20360;-75
2023/04/14 04:53:12;;;;;;;5.68;2.83;;;;;;;6.30;82.46;100881.13;4999479;28;20326;-75
2023/04/14 04:55:39;;;;;;;5.35;2.70;;;;;;;6.29;82.58;100889.81;4998692;28;20049;-74
2023/04/14 04:58:05;;;;;;;6.55;3.42;;;;;;;6.27;82.52;100887.25;4988892;28;20041;-74
2023/04/14 05:00:30;;;;;;;6.72;3.42;;;;;;;6.26;82.64;100892.50;4998433;28;20077;-74
2023/04/14 05:02:56;;;;;;;8.52;3.63;;;;;;;6.25;82.68;100896.81;4999116;28;20329;-74
2023/04/14 05:05:21;;;;;;;7.88;3.65;;;;;;;6.24;82.68;100895.13;4991554;28;20042;-75
2023/04/14 05:07:47;;;;;;;7.28;3.33;;;;;;;6.23;82.62;100885.59;4992017;28;20101;-74
2023/04/14 05:10:12;;;;;;;5.40;2.92;;;;;;;6.22;82.68;100886.50;4998650;28;20042;-75
2023/04/14 05:12:37;;;;;;;7.05;3.42;;;;;;;6.23;82.71;100893.41;4999463;28;20029;-75
2023/04/14 05:15:03;;;;;;;9.18;3.80;;;;;;;6.22;82.84;100891.72;4999823;28;20034;-75
2023/04/14 05:17:29;;;;;;;7.60;4.05;;;;;;;6.21;82.78;100886.53;5000102;28;20350;-75
2023/04/14 05:19:54;;;;;;;5.32;3.47;;;;;;;6.21;82.73;100887.38;5000406;28;20233;-75
2023/04/14 05:22:19;;;;;;;8.30;3.65;;;;;;;6.18;82.76;100890.03;4994138;28;20042;-74
2023/04/14 05:24:51;;;;;;;11.10;3.75;;;;;;;6.20;82.77;100900.41;4999622;28;20329;-75
2023/04/14 05:27:16;;;;;;;9.73;3.83;;;;;;;6.19;82.86;100902.16;4981441;28;20394;-74
2023/04/14 05:29:42;;;;;;;10.63;3.95;;;;;;;6.19;82.78;100906.53;4979206;28;20229;-74
2023/04/14 05:32:09;;;;;;;6.85;3.35;;;;;;;6.18;82.89;100910.84;4992711;28;20114;-75
2023/04/14 05:34:35;;;;;;;6.47;3.28;;;;;;;6.19;82.78;100917.78;4998246;28;20105;-75
2023/04/14 05:37:00;;;;;;;8.15;4.30;;;;;;;6.18;82.79;100913.44;4993043;28;20283;-75
2023/04/14 05:39:25;;;;;;;8.63;4.28;;;;;;;6.17;82.79;100913.47;4998929;28;20043;-74
2023/04/14 05:41:51;;;;;;;9.35;3.92;;;;;;;6.19;82.87;100922.97;4996202;28;20301;-74
2023/04/14 05:44:16;;;;;;;9.68;4.15;;;;;;;6.18;82.88;100913.44;4992279;28;20053;-75
2023/04/14 05:46:42;;;;;;;10.32;3.72;;;;;;;6.20;82.96;100908.22;4989896;28;20046;-75
2023/04/14 05:49:07;;;;;;;5.72;3.22;;;;;;;6.22;82.99;100911.63;4989172;28;20061;-75
2023/04/14 05:51:33;;;;;;;7.47;3.15;;;;;;;6.23;82.88;100915.97;4987714;28;20078;-75
2023/04/14 05:53:58;;;;;;;8.85;3.80;;;;;;;6.24;82.92;100913.34;4987886;28;20042;-75
2023/04/14 05:56:23;;;;;;;7.72;4.00;;;;;;;6.24;83.00;100915.94;4987675;28;20038;-75
2023/04/14 05:58:53;;;;;;;7.07;3.28;;;;;;;6.25;82.94;100915.03;4989109;28;20428;-74
2023/04/14 06:01:18;;;;;;;;;;;;;;;6.26;82.99;100916.75;4989192;28;20039;-74
2023/04/14 06:03:43;;;;;;;6.47;3.70;;;;;;;6.26;83.10;100911.56;4989205;28;20249;-74
2023/04/14 06:06:09;;;;;;;7.53;3.38;;;;;;;6.29;83.29;100915.81;4991722;28;20253;-74
2023/04/14 06:08:34;;;;;;;7.85;3.92;;;;;;;6.29;83.29;100914.09;4989465;28;20034;-75
2023/04/14 06:11:00;;;;;;;16.60;5.20;;;;;;;6.31;83.33;100924.44;4991722;28;20047;-75
2023/04/14 06:13:25;;;;;;;5.60;3.70;;;;;;;6.32;83.46;100914.00;4994341;28;20236;-74
2023/04/14 06:15:50;;;;;;;11.38;4.15;;;;;;;6.32;83.65;100908.81;4991873;28;20039;-75
2023/04/14 06:18:16;;;;;;;9.15;4.13;;;;;;;6.33;83.64;100918.34;4995380;28;20039;-75
2023/04/14 06:20:41;;;;;;;6.15;3.92;;;;;;;6.33;83.79;100907.06;4999608;28;20049;-74
2023/04/14 06:23:07;;;;;;;9.48;4.28;;;;;;;6.34;83.82;100911.38;5001172;28;20050;-75
2023/04/14 06:25:35;;;;;;;9.00;4.32;;;;;;;6.36;84.00;100917.41;5001679;28;20041;-74
2023/04/14 06:28:03;;;;;;;8.30;4.05;;;;;;;6.38;84.14;100910.41;5001393;28;20096;-74
2023/04/14 06:30:31;;;;;;;8.48;4.15;;;;;;;6.39;84.05;100909.53;4996532;28;20038;-75
2023/04/14 06:32:57;;;;;;;6.45;3.88;;;;;;;6.41;84.28;100909.50;5001876;28;20034;-75
2023/04/14 06:35:22;;;;;;;7.97;4.25;;;;;;;6.42;84.29;100911.19;5002596;28;20345;-75
2023/04/14 06:37:47;;;;;;;4.70;3.55;;;;;;;6.43;84.58;100903.38;5001075;28;20065;-74
2023/04/14 06:40:13;;;;;;;8.63;3.53;;;;;;;6.45;84.74;100900.72;5001281;28;20046;-75
2023/04/14 06:42:38;;;;;;;6.25;3.80;;;;;;;6.48;84.95;100908.47;4995023;28;20072;-75
2023/04/14 06:45:04;;;;;;;5.97;3.45;;;;;;;6.49;85.05;100904.97;4991309;28;20034;-74
2023/04/14 06:47:29;;;;;;;7.28;3.88;;;;;;;6.50;84.97;100899.75;5000000;28;20058;-75
2023/04/14 06:49:55;;;;;;;8.23;3.42;;;;;;;6.52;85.17;100905.75;4999574;28;20056;-75
2023/04/14 06:52:21;;;;;;;8.50;3.83;;;;;;;6.53;85.32;100899.69;4996420;28;20038;-75
2023/04/14 06:54:46;;;;;;;5.32;3.33;;;;;;;6.56;85.56;100896.13;5000239;28;20361;-75
2023/04/14 06:57:11;;;;;;;4.65;3.70;;;;;;;6.59;85.48;100903.88;4999283;28;20237;-75
2023/04/14 06:59:38;;;;;;;4.43;3.33;;;;;;;6.62;85.70;100906.41;4998570;28;20046;-75
2023/04/14 07:02:04;;;;;;;4.88;3.60;;;;;;;6.64;85.83;100904.63;4991999;28;20042;-75
2023/04/14 07:04:29;;;;;;;5.82;3.72;;;;;;;6.67;86.29;100901.09;5000123;28;20038;-75
2023/04/14 07:07:01;;;;;;;6.32;4.13;;;;;;;6.69;86.70;100896.69;4990450;28;20057;-75
2023/04/14 07:09:27;;;;;;;6.85;3.22;;;;;;;6.71;86.66;100903.59;4994518;28;20058;-75
2023/04/14 07:11:53;;;;;;;6.65;3.08;;;;;;;6.73;86.68;100901.81;4994275;28;20420;-75
2023/04/14 07:14:18;;;;;;;4.65;3.08;;;;;;;6.76;87.00;100895.66;4996845;28;20109;-75
2023/04/14 07:16:44;;;;;;;6.35;3.33;;;;;;;6.79;87.16;100898.22;4996863;28;20249;-75
2023/04/14 07:19:09;;;;;;;4.72;3.40;;;;;;;6.82;86.96;100898.13;4995815;28;20042;-75
2023/04/14 07:21:36;;;;;;;10.10;3.72;;;;;;;6.85;87.35;100885.03;4993570;28;20088;-75
2023/04/14 07:24:02;;;;;;;10.10;3.53;;;;;;;6.90;87.78;100885.78;4994603;28;20046;-75
2023/04/14 07:26:28;;;;;;;8.45;3.45;;;;;;;6.95;87.75;100880.47;4996437;28;20037;-75
2023/04/14 07:28:54;;;;;;;7.22;3.05;;;;;;;6.99;87.80;100878.66;4988131;28;20038;-75
2023/04/14 07:31:20;;;;;;;7.05;3.08;;;;;;;7.02;87.67;100875.94;4998134;28;20044;-75
2023/04/14 07:33:45;;;;;;;4.03;2.78;;;;;;;7.05;87.22;100881.09;4998040;28;20066;-75
2023/04/14 07:36:11;;;;;;;5.78;3.00;;;;;;;7.06;87.14;100873.25;4997172;28;20042;-75
2023/04/14 07:38:36;;;;;;;5.30;2.40;;;;;;;7.09;87.28;100880.09;4997560;28;20092;-75
2023/04/14 07:41:03;;;;;;;9.73;2.20;;;;;;;7.11;87.26;100879.19;4987160;28;20077;-75
2023/04/14 07:43:33;;;;;;;4.90;2.22;;;;;;;7.15;86.96;100882.56;4993132;28;20531;-75
2023/04/14 07:46:00;;;;;;;9.02;2.53;;;;;;;7.18;86.77;100882.47;4997592;28;20277;-75
2023/04/14 07:48:25;;;;;;;3.38;2.08;;;;;;;7.23;86.91;100871.94;4993709;28;20350;-75
2023/04/14 07:50:50;;;;;;;5.80;2.45;;;;;;;7.26;87.03;100877.94;4988253;28;20113;-75
2023/04/14 07:53:16;;;;;;;5.38;2.30;;;;;;;7.31;87.33;100872.59;4990718;28;21187;-75
2023/04/14 07:55:41;;;;;;;6.00;2.28;;;;;;;7.35;87.13;100873.34;4989804;28;20335;-75
2023/04/14 07:58:06;;;;;;;7.55;2.58;;;;;;;7.40;87.06;100874.09;4977679;28;20312;-75
2023/04/14 08:00:32;;;;;;;4.55;2.25;;;;;;;7.45;87.00;100877.44;4995741;28;20061;-75
2023/04/14 08:02:57;;;;;;;7.28;2.45;;;;;;;7.48;86.80;100878.22;4990434;28;20273;-75
2023/04/14 08:05:23;;;;;;;3.50;2.10;;;;;;;7.54;86.60;100873.72;4992533;28;20042;-75
2023/04/14 08:07:48;;;;;;;4.07;1.98;;;;;;;7.58;86.56;100877.94;4991042;28;20054;-75
2023/04/14 08:10:14;;;;;;;5.47;2.40;;;;;;;7.60;86.31;100879.59;4993507;28;20072;-75
2023/04/14 08:12:40;;;;;;;6.03;1.70;;;;;;;7.65;86.49;100877.72;4992016;28;20046;-75
2023/04/14 08:15:05;;;;;;;7.50;2.20;;;;;;;7.69;86.07;100876.78;4990994;28;20049;-75
2023/04/14 08:17:31;;;;;;;9.05;2.22;;;;;;;7.74;86.11;100873.19;4990191;28;20368;-75
2023/04/14 08:19:57;;;;;;;4.10;2.10;;;;;;;7.77;85.50;100873.94;4991131;28;20202;-75
2023/04/14 08:22:24;;;;;;;4.07;2.03;;;;;;;7.81;85.46;100877.31;4992403;28;20069;-75
2023/04/14 08:24:50;;;;;;;3.45;1.80;;;;;;;7.82;85.22;100872.06;4988433;28;20066;-75
2023/04/14 08:27:15;;;;;;;6.65;1.90;;;;;;;7.84;84.82;100880.69;4994960;28;20042;-75
2023/04/14 08:29:40;;;;;;;8.55;2.47;;;;;;;7.86;85.08;100872.84;4994548;28;20038;-75
2023/04/14 08:32:06;;;;;;;3.08;1.80;;;;;;;7.92;85.25;100877.00;4997542;28;20050;-75
2023/04/14 08:34:31;;;;;;;3.28;1.92;;;;;;;7.96;85.39;100873.41;4998085;28;20333;-75
2023/04/14 08:36:59;;;;;;;5.47;2.67;;;;;;;7.99;85.00;100871.56;4994105;28;20037;-75
2023/04/14 08:39:25;;;;;;;3.95;1.92;;;;;;;8.04;84.37;100866.19;4996915;28;20042;-75
2023/04/14 08:41:52;;;;;;;6.43;2.75;;;;;;;8.10;84.14;100868.63;4995614;28;20041;-75
2023/04/14 08:44:17;;;;;;;4.25;2.00;;;;;;;8.14;83.91;100865.03;4992416;28;20128;-75
2023/04/14 08:46:44;;;;;;;5.00;2.10;;;;;;;8.19;83.94;100868.34;4996625;28;20026;-75
2023/04/14 08:49:18;;;;;;;5.05;1.70;;;;;;;8.23;83.50;100867.34;4988498;28;20045;-75
2023/04/14 08:51:44;;;;;;;8.02;1.85;;;;;;;8.28;83.53;100862.00;4991335;28;20026;-75
2023/04/14 08:54:11;;;;;;;3.42;1.23;;;;;;;8.33;82.46;100865.34;4996035;28;20046;-75
2023/04/14 08:56:41;;;;;;;2.85;1.80;;;;;;;8.36;82.56;100861.78;4992860;28;20038;-75
2023/04/14 08:59:08;;;;;;;6.20;1.58;;;;;;;8.41;82.55;100862.50;4995614;28;20337;-75
2023/04/14 09:01:35;;;;;;;2.65;1.25;;;;;;;8.45;82.28;100869.34;4995451;28;20341;-75
2023/04/14 09:04:03;;;;;;;4.70;1.83;;;;;;;8.48;81.96;100860.53;4996844;28;20568;-75
2023/04/14 09:06:29;;;;;;;2.63;1.33;;;;;;;8.51;81.93;100858.69;4996489;28;20048;-75
2023/04/14 09:08:54;;;;;;;4.78;1.45;;;;;;;8.57;80.81;100861.13;4987308;28;20276;-75
2023/04/14 09:11:20;;;;;;;3.60;1.38;;;;;;;8.65;81.03;100855.66;4996735;28;20060;-75
2023/04/14 09:13:48;;;;;;;3.72;1.92;;;;;;;8.71;80.40;100850.22;4995230;28;20042;-75
2023/04/14 09:16:15;;;;;;;4.87;1.40;;;;;;;8.81;80.08;100856.00;4996569;28;20122;-75
2023/04/14 09:18:41;;;;;;;4.35;1.55;;;;;;;8.89;80.21;100858.38;4996073;28;20042;-75
2023/04/14 09:21:06;;;;;;;5.60;1.35;;;;;;;8.97;79.86;100853.75;4996226;28;20121;-75
2023/04/14 09:23:32;;;;;;;6.93;1.42;;;;;;;9.06;78.77;100857.78;4996045;28;20042;-75
2023/04/14 09:25:57;;;;;;;5.15;1.38;;;;;;;9.14;78.39;100855.78;4996219;28;20077;-75
2023/04/14 09:28:23;;;;;;;2.97;1.30;;;;;;;9.21;78.23;100852.06;4996310;28;20333;-76
2023/04/14 09:30:48;;;;;;;5.40;1.48;;;;;;;9.29;78.94;100852.63;4995639;28;20069;-76
2023/04/14 09:33:21;;;;;;;2.70;1.17;;;;;;;9.37;77.99;100847.16;4995872;28;20042;-75
2023/04/14 09:35:48;;;;;;;4.53;1.00;;;;;;;9.45;78.21;100852.94;4994284;28;20038;-75
2023/04/14 09:38:29;;;;;;;3.90;1.35;;;;;;;9.52;77.10;100848.34;4995329;28;20054;-75
2023/04/14 09:40:55;;;;;;;8.68;1.80;;;;;;;9.57;76.51;100849.06;4998788;28;20038;-75
2023/04/14 09:43:26;;;;;;;3.92;0.93;;;;;;;9.62;74.12;100844.47;4997496;28;20053;-75
2023/04/14 09:45:52;;;;;;;8.73;1.20;;;;;;;9.68;75.76;100843.41;4993162;28;20073;-75
2023/04/14 09:48:19;;;;;;;4.65;1.48;;;;;;;9.73;75.34;100839.72;4994281;28;20034;-75
2023/04/14 09:51:06;;;;;;;5.85;1.35;;;;;;;9.82;74.71;100837.66;4998580;28;20046;-75
2023/04/14 09:53:33;;;;;;;4.03;1.45;;;;;;;9.88;74.46;100835.69;4998143;28;20068;-75
2023/04/14 09:56:02;;;;;;;2.17;1.60;;;;;;;9.93;74.35;100838.09;4998388;28;20054;-75
2023/04/14 09:58:35;;;;;;;4.22;1.75;;;;;;;9.98;74.63;100837.00;4999588;28;20042;-75
2023/04/14 10:01:15;;;;;;;6.55;2.15;;;;;;;10.03;75.48;100830.78;4998025;28;20046;-75
2023/04/14 10:03:42;;;;;;;7.78;1.92;;;;;;;10.07;74.79;100834.97;4997090;28;20040;-76
2023/04/14 10:06:14;;;;;;;8.15;2.80;;;;;;;10.10;75.04;100830.47;4997486;28;20030;-75
2023/04/14 10:08:41;;;;;;;6.45;2.00;;;;;;;10.15;74.99;100830.28;4992968;28;20027;-75
2023/04/14 10:11:28;;;;;;;5.60;2.35;;;;;;;10.19;74.60;100827.50;4999154;28;20038;-75
2023/04/14 10:13:54;;;;;;;5.57;2.17;;;;;;;10.25;73.55;100815.09;4996654;28;20034;-75
2023/04/14 10:16:21;;;;;;;9.45;2.38;;;;;;;10.29;74.54;100821.91;4998689;28;20085;-76
2023/04/14 10:18:46;;;;;;;3.38;1.70;;;;;;;10.33;74.51;100826.13;4996150;28;20033;-76
2023/04/14 10:21:13;;;;;;;4.90;1.98;;;;;;;10.33;74.25;100816.53;4997686;28;20050;-75
2023/04/14 10:23:40;;;;;;;5.93;2.00;;;;;;;10.34;73.89;100820.00;4990975;28;20057;-76
2023/04/14 10:26:10;;;;;;;11.98;2.05;;;;;;;10.36;73.72;100820.78;4996808;28;20034;-75
2023/04/14 10:28:42;;;;;;;4.25;1.65;;;;;;;10.36;73.60;100807.69;4998618;28;20029;-75
2023/04/14 10:31:12;;;;;;;2.78;1.73;;;;;;;10.37;73.31;100812.03;4998213;28;20271;-75
2023/04/14 10:33:38;;;;;;;4.88;1.60;;;;;;;10.38;73.21;100813.72;4997497;28;20041;-75
2023/04/14 10:36:04;;;;;;;4.78;1.52;;;;;;;10.43;72.29;100805.69;4997967;28;20042;-76
2023/04/14 10:38:41;;;;;;;2.28;1.20;;;;;;;10.44;71.67;100803.00;4997443;28;20049;-75
2023/04/14 10:41:07;;;;;;;2.60;1.13;;;;;;;10.44;71.27;100804.75;4996792;28;20045;-75
2023/04/14 10:43:35;;;;;;;2.90;1.80;;;;;;;10.44;70.86;100808.25;4998139;28;20357;-75
2023/04/14 10:46:00;;;;;;;5.07;1.30;;;;;;;10.49;71.22;100805.41;4998300;28;20337;-76
2023/04/14 10:48:31;;;;;;;2.45;1.63;;;;;;;10.54;70.49;100799.06;4998228;28;20068;-76
2023/04/14 10:51:02;;;;;;;7.22;2.95;;;;;;;10.53;70.12;100804.38;4997365;28;20042;-76
2023/04/14 10:53:48;;;;;;;3.13;1.90;;;;;;;10.55;71.00;100805.16;4997245;28;20449;-76
2023/04/14 10:56:14;;;;;;;6.25;1.60;;;;;;;10.55;71.80;100792.94;4997215;28;20399;-75
2023/04/14 10:58:52;;;;;;;4.40;1.75;;;;;;;10.61;70.65;100788.38;4997837;28;20101;-76
2023/04/14 11:01:30;;;;;;;5.50;1.27;;;;;;;10.72;70.78;100797.47;4996660;28;20097;-75
2023/04/14 11:03:57;;;;;;;5.63;1.92;;;;;;;10.82;70.32;100795.28;4997571;28;20044;-76
2023/04/14 11:06:44;;;;;;;3.33;1.33;;;;;;;10.93;71.27;100793.09;4998246;28;20118;-76
2023/04/14 11:09:37;;;;;;;3.83;1.57;;;;;;;11.00;70.43;100791.03;4995897;28;20412;-76
2023/04/14 11:12:23;;;;;;;4.70;1.50;;;;;;;11.11;70.78;100787.97;4995168;28;20089;-76
2023/04/14 11:14:53;;;;;;;3.35;1.10;;;;;;;11.20;69.72;100790.16;4997266;28;20250;-76
2023/04/14 11:17:22;;;;;;;3.83;1.48;;;;;;;11.22;68.67;100788.34;4997145;28;20044;-76
2023/04/14 11:19:52;;;;;;;3.45;1.50;;;;;;;11.25;68.68;100787.38;4995948;28;20058;-76
2023/04/14 11:22:36;;;;;;;7.40;1.73;;;;;;;11.26;68.81;100796.91;4996550;28;20144;-76
2023/04/14 11:25:02;;;;;;;2.67;1.50;;;;;;;11.26;68.75;100795.16;4997596;28;20109;-75
2023/04/14 11:27:28;;;;;;;5.78;1.85;;;;;;;11.29;69.30;100792.38;4997555;28;20077;-76
2023/04/14 11:29:53;;;;;;;3.95;1.30;;;;;;;11.36;70.48;100795.59;4995534;28;20219;-76
2023/04/14 11:32:19;;;;;;;4.25;1.42;;;;;;;11.39;68.46;100792.84;4995314;28;20034;-75
2023/04/14 11:34:44;;;;;;;3.88;1.45;;;;;;;11.43;68.71;100788.31;4997156;28;20035;-75
2023/04/14 11:37:10;;;;;;;4.97;1.95;;;;;;;11.48;69.04;100796.84;4996963;28;20053;-75